KDDC/DDC METAR and TAF weather

Enter ICAO airport designator
Station Type Date Time Source
KDDC METAR 2018/01/23 00:52 UTC NOAA

KDDC 230052Z AUTO 31010KT 10SM CLR 01/M09 A3004 RMK AO2 SLP187 T00061089


Station Type Date Time Source
KDDC Decoded METAR 2018/01/23 00:52 UTC NOAA

DODGE CITY REGIONAL AIRPORT, KS, United States (KDDC) 37-46N 99-58W 789M
Jan 22, 2018 - 07:52 PM EST / 2018.01.23 0052 UTC
Wind: from the NW (310 degrees) at 12 MPH (10 KT):0
Visibility: 10 mile(s):0
Sky conditions: clear
Temperature: 33.1 F (0.6 C)
Windchill: 24 F (-4 C):1
Dew Point: 16.0 F (-8.9 C)
Relative Humidity: 48%
Pressure (altimeter): 30.04 in. Hg (1017 hPa)
ob: KDDC 230052Z AUTO 31010KT 10SM CLR 01/M09 A3004 RMK AO2 SLP187 T00061089
cycle: 1

Station Type Date Time Source
KDDC TAF 2018/01/22 18:30 UTC NOAA

TAF KDDC 221728Z 2218/2318 33030G46KT P6SM SCT024
TEMPO 2218/2220 BKN025
FM222100 32023G31KT P6SM FEW250
FM230000 32015KT P6SM SKC
FM230400 30008KT P6SM FEW250


Example: see airport list